Time;durP1;ratioP1;P1;durP2;ratioP2;P2;SDS_P1;SDS_P2;PMS_P1;PMS_P2;Temp;Humidity;BMP_temperature;BMP_pressure;BME280_temperature;BME280_humidity;BME280_pressure;Samples;Min_cycle;Max_cycle;Signal;HPM_P1;HPM_P2
2024/01/09 00:00:04;;;;;;;17.85;7.55;;;;;;;-4.01;55.34;98094.63;4997822;28;20398;-82
2024/01/09 00:02:29;;;;;;;16.17;6.60;;;;;;;-4.33;54.81;98098.09;5013212;28;20053;-85
2024/01/09 00:04:54;;;;;;;14.65;6.57;;;;;;;-4.24;55.62;98096.53;5017441;28;20340;-84
2024/01/09 00:07:20;;;;;;;14.55;7.28;;;;;;;-4.47;56.37;98098.44;5015797;28;20124;-84
2024/01/09 00:09:45;;;;;;;14.32;7.70;;;;;;;-4.35;55.41;98094.88;5004686;28;20034;-83
2024/01/09 00:12:11;;;;;;;12.80;6.95;;;;;;;-4.35;55.12;98097.44;5001373;28;20394;-83
2024/01/09 00:14:36;;;;;;;14.52;6.43;;;;;;;-4.10;55.04;98099.66;5013100;28;20065;-84
2024/01/09 00:17:01;;;;;;;11.88;6.07;;;;;;;-3.98;55.25;98101.97;5014743;28;20063;-82
2024/01/09 00:19:27;;;;;;;14.75;8.25;;;;;;;-3.95;54.09;98106.81;4986941;28;20513;-84
2024/01/09 00:21:53;;;;;;;15.38;6.82;;;;;;;-4.31;54.21;98103.06;5020109;28;20065;-82
2024/01/09 00:24:18;;;;;;;12.70;6.30;;;;;;;-4.31;54.71;98103.06;5029310;28;20112;-85
2024/01/09 00:26:44;;;;;;;14.95;6.80;;;;;;;-4.18;55.12;98100.28;4993257;28;20048;-83
2024/01/09 00:29:09;;;;;;;20.10;7.95;;;;;;;-3.95;54.61;98108.56;4998610;28;20030;-83
2024/01/09 00:31:35;;;;;;;17.75;7.18;;;;;;;-4.25;54.55;98092.41;4983858;28;20026;-81
2024/01/09 00:34:01;;;;;;;15.93;7.35;;;;;;;-3.90;54.47;98098.00;5002859;28;20501;-83
2024/01/09 00:36:27;;;;;;;12.20;5.60;;;;;;;-4.35;54.21;98094.09;5016427;28;20034;-83
2024/01/09 00:38:52;;;;;;;15.63;7.10;;;;;;;-4.20;54.69;98104.72;5004198;28;20038;-83
2024/01/09 00:41:17;;;;;;;15.45;6.88;;;;;;;-4.46;55.05;98104.31;5017331;28;20045;-82
2024/01/09 00:43:43;;;;;;;16.05;6.47;;;;;;;-4.07;54.82;98109.59;5018789;28;20080;-83
2024/01/09 00:46:08;;;;;;;16.90;7.45;;;;;;;-4.13;54.26;98100.72;4999700;28;20069;-84
2024/01/09 00:48:34;;;;;;;14.50;6.43;;;;;;;-4.07;53.99;98105.31;5014615;28;20042;-82
2024/01/09 00:50:59;;;;;;;15.13;7.43;;;;;;;-4.33;54.25;98105.72;4997901;28;20065;-82
2024/01/09 00:53:25;;;;;;;16.58;6.55;;;;;;;-4.24;54.51;98106.69;4984745;28;20099;-83
2024/01/09 00:55:50;;;;;;;15.63;6.65;;;;;;;-4.25;54.48;98101.75;5000385;28;20457;-82
2024/01/09 00:58:16;;;;;;;14.88;5.90;;;;;;;-4.40;54.59;98106.38;5002719;28;20037;-83
2024/01/09 01:00:41;;;;;;;13.35;6.35;;;;;;;-4.32;54.67;98101.44;5018371;28;20030;-84
2024/01/09 01:03:06;;;;;;;14.70;7.55;;;;;;;-4.42;54.94;98101.41;5011812;28;20046;-82
2024/01/09 01:05:33;;;;;;;14.55;7.13;;;;;;;-4.54;54.88;98099.84;4993232;28;20057;-82
2024/01/09 01:07:59;;;;;;;14.98;6.18;;;;;;;-4.52;54.99;98108.19;4984136;28;20038;-82
2024/01/09 01:10:24;;;;;;;15.02;6.50;;;;;;;-4.45;54.81;98114.38;5000847;28;20044;-84
2024/01/09 01:12:50;;;;;;;13.65;6.20;;;;;;;-4.73;55.35;98105.63;5001115;28;20080;-84
2024/01/09 01:15:15;;;;;;;12.77;6.45;;;;;;;-4.61;55.61;98114.00;4995024;28;20380;-84
2024/01/09 01:17:41;;;;;;;16.42;8.27;;;;;;;-4.81;55.18;98113.09;5001012;28;20030;-81
2024/01/09 01:20:07;;;;;;;17.05;6.85;;;;;;;-4.87;55.83;98116.91;5014507;28;20521;-82
2024/01/09 01:22:32;;;;;;;16.65;7.63;;;;;;;-4.73;55.99;98118.34;5019092;28;20470;-80
2024/01/09 01:24:57;;;;;;;16.67;7.43;;;;;;;-4.54;54.87;98107.47;5018517;28;20033;-84
2024/01/09 01:27:23;;;;;;;12.63;6.15;;;;;;;-4.15;54.42;98121.22;4999405;28;20574;-84
2024/01/09 01:29:48;;;;;;;15.05;7.20;;;;;;;-4.45;54.90;98126.28;5017305;28;20029;-83
2024/01/09 01:32:16;;;;;;;14.15;6.05;;;;;;;-4.71;54.96;98106.34;5012591;28;20037;-85
2024/01/09 01:34:41;;;;;;;14.88;7.25;;;;;;;-4.46;55.27;98110.19;5003089;28;20116;-84
2024/01/09 01:37:07;;;;;;;13.57;6.38;;;;;;;-4.54;55.37;98113.38;5012144;28;20430;-84
2024/01/09 01:39:32;;;;;;;18.33;6.82;;;;;;;-4.69;55.32;98109.56;5003169;28;20031;-82
2024/01/09 01:41:58;;;;;;;14.80;7.38;;;;;;;-4.58;55.60;98111.22;4985852;28;20039;-82
2024/01/09 01:44:23;;;;;;;15.25;6.38;;;;;;;-4.78;55.40;98110.28;4984629;28;20067;-81
2024/01/09 01:46:50;;;;;;;13.88;6.20;;;;;;;-5.06;56.03;98101.53;5009626;28;20076;-82
2024/01/09 01:49:17;;;;;;;16.02;6.88;;;;;;;-4.70;55.90;98116.34;5014980;28;20041;-84
2024/01/09 01:51:43;;;;;;;15.93;7.03;;;;;;;-4.44;56.12;98113.41;4998364;28;20337;-83
2024/01/09 01:54:08;;;;;;;17.02;7.15;;;;;;;-4.52;54.79;98105.63;5002628;28;20409;-84
2024/01/09 01:56:34;;;;;;;14.45;6.32;;;;;;;-4.54;54.83;98112.56;5026056;28;20042;-83
2024/01/09 01:59:00;;;;;;;16.15;7.03;;;;;;;-4.52;55.30;98110.72;5000964;28;20124;-82
2024/01/09 02:01:26;;;;;;;16.15;5.95;;;;;;;-4.55;55.16;98103.34;5017055;28;20048;-83
2024/01/09 02:03:52;;;;;;;12.15;6.85;;;;;;;-4.92;55.50;98106.31;4997370;28;20421;-82
2024/01/09 02:06:18;;;;;;;13.23;6.75;;;;;;;-4.70;55.04;98111.25;4996703;28;20038;-78
2024/01/09 02:08:43;;;;;;;13.05;5.55;;;;;;;-4.40;55.26;98114.00;5017641;28;20084;-78
2024/01/09 02:11:10;;;;;;;13.90;7.35;;;;;;;-4.58;55.43;98106.13;5021032;28;20032;-79
2024/01/09 02:13:35;;;;;;;14.20;6.38;;;;;;;-4.48;55.11;98104.44;4985013;28;20498;-78
2024/01/09 02:16:01;;;;;;;15.27;6.15;;;;;;;-4.46;55.23;98105.13;5000686;28;20030;-79
2024/01/09 02:18:26;;;;;;;15.55;7.38;;;;;;;-4.61;54.96;98096.22;4998801;28;20123;-78
2024/01/09 02:20:52;;;;;;;15.95;6.40;;;;;;;-4.68;55.93;98095.91;5003145;28;20254;-78
2024/01/09 02:23:18;;;;;;;14.32;6.38;;;;;;;-4.60;55.51;98102.91;4993192;28;20574;-78
2024/01/09 02:25:44;;;;;;;11.75;5.60;;;;;;;-4.41;55.06;98094.59;4994851;28;20124;-79
2024/01/09 02:28:24;;;;;;;14.30;6.75;;;;;;;-4.66;55.73;98098.31;4980336;28;20556;-78
2024/01/09 02:30:53;;;;;;;13.82;6.43;;;;;;;-4.54;55.09;98092.22;5004577;28;20428;-79
2024/01/09 02:33:19;;;;;;;17.42;6.50;;;;;;;-4.78;55.51;98090.78;5005451;28;20038;-78
2024/01/09 02:35:44;;;;;;;12.55;6.40;;;;;;;-4.90;55.53;98092.56;4997370;28;20438;-78
2024/01/09 02:38:09;;;;;;;13.45;6.15;;;;;;;-4.65;55.10;98084.69;5008188;28;20398;-79
2024/01/09 02:40:35;;;;;;;18.55;7.55;;;;;;;-4.71;55.79;98086.81;4983420;28;20041;-79
2024/01/09 02:43:00;;;;;;;15.27;6.38;;;;;;;-4.51;55.99;98094.53;5016186;28;20030;-79
2024/01/09 02:45:25;;;;;;;15.82;7.05;;;;;;;-4.48;55.45;98090.94;4997274;28;20409;-79
2024/01/09 02:47:51;;;;;;;15.27;6.05;;;;;;;-4.74;55.32;98091.34;5005380;28;20432;-78
2024/01/09 02:50:17;;;;;;;14.13;7.20;;;;;;;-4.79;55.06;98094.25;5027966;28;20262;-78
2024/01/09 02:52:42;;;;;;;15.82;6.10;;;;;;;-4.73;55.42;98081.06;4989967;28;20036;-79
2024/01/09 02:55:08;;;;;;;14.23;5.80;;;;;;;-4.60;55.16;98082.59;5004831;28;20037;-78
2024/01/09 02:57:33;;;;;;;12.73;5.88;;;;;;;-4.41;54.90;98084.41;5019056;28;20030;-78
2024/01/09 02:59:58;;;;;;;14.93;6.85;;;;;;;-4.60;55.51;98078.31;5023044;28;20021;-79
2024/01/09 03:02:24;;;;;;;14.10;6.18;;;;;;;-4.48;55.02;98066.31;5007218;28;20486;-78
2024/01/09 03:04:49;;;;;;;13.55;6.97;;;;;;;-4.69;55.23;98073.97;5008952;28;20029;-78
2024/01/09 03:07:14;;;;;;;12.73;5.93;;;;;;;-4.54;55.45;98066.81;5023238;28;20028;-78
2024/01/09 03:09:43;;;;;;;10.93;5.13;;;;;;;-4.74;55.45;98061.66;5006949;28;20539;-78
2024/01/09 03:12:08;;;;;;;18.25;7.15;;;;;;;-4.81;56.25;98075.78;5038574;28;20057;-78
2024/01/09 03:14:37;;;;;;;12.95;6.15;;;;;;;-4.98;56.30;98073.81;5025854;28;20507;-85
2024/01/09 03:17:04;;;;;;;15.65;6.15;;;;;;;-4.83;55.71;98074.28;5016741;28;20498;-85
2024/01/09 03:19:30;;;;;;;14.38;6.15;;;;;;;-4.99;55.93;98067.91;5010114;28;20021;-81
2024/01/09 03:21:55;;;;;;;16.27;6.95;;;;;;;-5.29;56.68;98066.09;5007621;28;20099;-83
2024/01/09 03:24:20;;;;;;;14.52;6.70;;;;;;;-4.85;56.12;98071.88;5025785;28;20089;-83
2024/01/09 03:26:46;;;;;;;14.23;6.20;;;;;;;-5.07;56.16;98072.81;5007047;28;20356;-78
2024/01/09 03:29:11;;;;;;;13.57;5.65;;;;;;;-5.05;56.20;98053.19;5024703;28;20029;-78
2024/01/09 03:31:37;;;;;;;13.90;6.10;;;;;;;-5.13;56.55;98071.53;5018356;28;20091;-78
2024/01/09 03:34:02;;;;;;;11.07;5.10;;;;;;;-5.05;56.03;98070.13;5024585;28;20107;-78
2024/01/09 03:36:28;;;;;;;11.10;5.20;;;;;;;-5.16;56.63;98064.16;5000877;28;20033;-78
2024/01/09 03:38:55;;;;;;;13.20;4.97;;;;;;;-5.05;56.55;98072.66;5007634;28;20032;-77
2024/01/09 03:41:21;;;;;;;14.77;5.70;;;;;;;-4.94;56.55;98075.94;5015996;28;20045;-79
2024/01/09 03:43:46;;;;;;;13.25;5.45;;;;;;;-4.76;55.65;98066.06;5022197;28;20045;-78
2024/01/09 03:46:11;;;;;;;10.77;4.78;;;;;;;-4.66;55.63;98067.84;5019677;28;20029;-79
2024/01/09 03:48:37;;;;;;;13.98;6.00;;;;;;;-4.78;56.24;98070.47;5023502;28;20466;-79
2024/01/09 03:51:02;;;;;;;16.58;6.35;;;;;;;-4.81;55.55;98070.69;5023607;28;20386;-78
2024/01/09 03:53:28;;;;;;;10.88;5.78;;;;;;;-4.82;56.08;98069.06;5023669;28;20557;-78
2024/01/09 03:55:53;;;;;;;12.75;5.75;;;;;;;-4.71;55.60;98074.09;5026138;28;20033;-78
2024/01/09 03:58:18;;;;;;;13.32;5.55;;;;;;;-4.80;55.73;98067.22;5056258;28;20397;-78
2024/01/09 04:00:44;;;;;;;14.27;6.35;;;;;;;-4.68;56.08;98069.69;5015325;28;20064;-79
2024/01/09 04:03:10;;;;;;;15.98;6.28;;;;;;;-4.58;55.38;98068.00;5001245;28;20063;-79
2024/01/09 04:05:35;;;;;;;12.65;5.53;;;;;;;-4.57;55.58;98062.00;5026229;28;20041;-79
2024/01/09 04:08:01;;;;;;;15.68;7.10;;;;;;;-4.56;55.43;98063.59;5023800;28;20040;-79
2024/01/09 04:10:26;;;;;;;11.68;5.35;;;;;;;-4.71;56.02;98065.69;5042455;28;20033;-79
2024/01/09 04:12:51;;;;;;;13.35;5.72;;;;;;;-4.65;55.47;98072.00;5017938;28;20035;-79
2024/01/09 04:15:17;;;;;;;12.23;4.80;;;;;;;-4.50;54.96;98069.94;5007551;28;20025;-78
2024/01/09 04:17:42;;;;;;;12.73;5.78;;;;;;;-4.57;55.35;98057.72;4991724;28;20022;-80
2024/01/09 04:20:11;;;;;;;12.00;5.15;;;;;;;-4.47;55.55;98057.78;5020419;28;20436;-79
2024/01/09 04:22:36;;;;;;;11.73;5.45;;;;;;;-4.45;55.77;98065.28;5024268;28;20053;-79
2024/01/09 04:25:02;;;;;;;13.85;5.63;;;;;;;-4.58;55.58;98050.22;5007106;28;20127;-79
2024/01/09 04:27:27;;;;;;;13.00;5.75;;;;;;;-4.68;55.87;98060.31;5018850;28;20034;-78
2024/01/09 04:29:52;;;;;;;14.40;5.70;;;;;;;-4.80;55.79;98059.59;5028266;28;20541;-79
2024/01/09 04:32:18;;;;;;;17.25;7.13;;;;;;;-4.75;55.49;98060.03;5033630;28;20107;-78
2024/01/09 04:34:43;;;;;;;13.43;6.18;;;;;;;-4.90;56.38;98054.47;5025433;28;20040;-79
2024/01/09 04:37:08;;;;;;;12.13;5.85;;;;;;;-4.76;56.30;98062.72;5007030;28;20115;-85
2024/01/09 04:39:34;;;;;;;11.25;5.35;;;;;;;-4.64;55.73;98065.97;5016134;28;20068;-84
2024/01/09 04:41:59;;;;;;;12.05;5.45;;;;;;;-4.93;56.44;98059.78;5024710;28;20071;-83
2024/01/09 04:44:24;;;;;;;13.82;5.93;;;;;;;-4.80;56.21;98059.59;5006213;28;20041;-82
2024/01/09 04:46:50;;;;;;;14.38;5.97;;;;;;;-4.86;56.10;98056.78;5023823;28;20558;-84
2024/01/09 04:49:15;;;;;;;13.93;5.28;;;;;;;-4.82;55.94;98058.13;4990104;28;20545;-85
2024/01/09 04:51:41;;;;;;;11.73;5.97;;;;;;;-4.83;56.14;98052.25;4992460;28;20632;-84
2024/01/09 04:54:06;;;;;;;10.43;5.53;;;;;;;-4.75;56.18;98054.94;5006869;28;20017;-85
2024/01/09 04:56:32;;;;;;;10.48;5.38;;;;;;;-4.77;55.99;98059.34;5008787;28;20159;-85
2024/01/09 04:58:57;;;;;;;13.45;5.88;;;;;;;-4.94;56.56;98062.47;5016392;28;20047;-83
2024/01/09 05:01:22;;;;;;;11.95;5.05;;;;;;;-5.04;56.57;98061.59;4983511;28;20314;-84
2024/01/09 05:03:49;;;;;;;11.27;6.18;;;;;;;-5.05;56.50;98057.44;5020769;28;20038;-84
2024/01/09 05:06:16;;;;;;;14.05;5.47;;;;;;;-5.08;56.50;98058.50;5012470;28;20552;-83
2024/01/09 05:08:41;;;;;;;14.70;5.82;;;;;;;-4.87;56.54;98062.78;5008332;28;20041;-85
2024/01/09 05:11:06;;;;;;;14.85;5.70;;;;;;;-4.92;56.96;98061.41;5005129;28;20095;-81
2024/01/09 05:13:32;;;;;;;12.10;4.78;;;;;;;-4.78;56.29;98065.38;5005954;28;20504;-84
2024/01/09 05:15:57;;;;;;;17.33;5.40;;;;;;;-4.57;55.91;98060.25;5021927;28;20029;-84
2024/01/09 05:18:22;;;;;;;11.82;5.00;;;;;;;-4.83;55.83;98064.13;5019396;28;20029;-85
2024/01/09 05:20:48;;;;;;;12.98;6.18;;;;;;;-4.78;56.50;98067.91;5037412;28;20489;-83
2024/01/09 05:23:13;;;;;;;11.85;5.10;;;;;;;-4.90;56.09;98066.34;5004868;28;20068;-84
2024/01/09 05:25:38;;;;;;;14.85;6.30;;;;;;;-4.57;56.07;98075.50;5002173;28;20029;-85
2024/01/09 05:28:04;;;;;;;11.43;5.60;;;;;;;-4.92;56.92;98068.22;4987574;28;20485;-84
2024/01/09 05:30:29;;;;;;;14.65;6.43;;;;;;;-5.14;56.33;98069.13;5019082;28;20080;-85
2024/01/09 05:32:55;;;;;;;11.88;5.25;;;;;;;-4.89;56.26;98067.97;4989014;28;20052;-86
2024/01/09 05:35:20;;;;;;;14.38;6.15;;;;;;;-4.92;56.76;98073.28;5005640;28;20049;-78
2024/01/09 05:37:45;;;;;;;14.70;6.75;;;;;;;-4.85;55.89;98071.88;5018210;28;20039;-79
2024/01/09 05:40:11;;;;;;;14.35;6.63;;;;;;;-4.85;56.03;98074.41;4985286;28;20469;-80
2024/01/09 05:42:36;;;;;;;13.63;5.10;;;;;;;-4.84;56.49;98076.03;4987748;28;20041;-80
2024/01/09 05:45:02;;;;;;;12.23;5.30;;;;;;;-4.65;56.39;98070.25;5003329;28;20033;-79
2024/01/09 05:47:28;;;;;;;13.90;5.60;;;;;;;-4.70;55.60;98075.69;5006364;28;20656;-86
2024/01/09 05:49:53;;;;;;;12.85;6.32;;;;;;;-4.73;56.04;98078.50;5017686;28;20109;-84
2024/01/09 05:52:18;;;;;;;16.25;5.95;;;;;;;-4.55;56.13;98068.56;5022528;28;20057;-85
2024/01/09 05:54:45;;;;;;;16.15;6.68;;;;;;;-4.74;55.94;98051.47;4986497;28;20450;-84
2024/01/09 05:57:11;;;;;;;12.70;6.53;;;;;;;-4.95;56.80;98053.22;4984924;28;20079;-82
2024/01/09 05:59:36;;;;;;;12.25;5.65;;;;;;;-4.84;56.57;98060.78;4987009;28;20026;-84
2024/01/09 06:02:01;;;;;;;13.80;6.10;;;;;;;-4.76;56.24;98065.25;5004572;28;20038;-85
2024/01/09 06:04:27;;;;;;;15.60;6.55;;;;;;;-4.62;56.14;98054.75;5002586;28;20033;-83
2024/01/09 06:06:52;;;;;;;13.63;6.32;;;;;;;-4.71;56.36;98065.69;5016037;28;20064;-84
2024/01/09 06:09:17;;;;;;;14.27;6.25;;;;;;;-4.78;56.73;98065.38;4997747;28;20611;-85
2024/01/09 06:11:43;;;;;;;12.80;6.43;;;;;;;-4.79;56.57;98052.78;4987444;28;20030;-81
2024/01/09 06:14:08;;;;;;;14.00;5.80;;;;;;;-4.86;56.83;98062.66;5001914;28;20022;-84
2024/01/09 06:16:33;;;;;;;12.90;6.05;;;;;;;-4.79;56.02;98068.84;5019091;28;20083;-84
2024/01/09 06:18:59;;;;;;;16.58;6.88;;;;;;;-4.99;56.59;98067.91;5017042;28;20500;-83
2024/01/09 06:21:24;;;;;;;13.68;7.45;;;;;;;-4.67;56.62;98084.81;5024280;28;20045;-84
2024/01/09 06:23:50;;;;;;;15.15;6.28;;;;;;;-4.66;55.72;98078.81;5001879;28;20044;-84
2024/01/09 06:26:15;;;;;;;14.30;8.38;;;;;;;-4.71;56.21;98075.84;5017006;28;20026;-84
2024/01/09 06:28:42;;;;;;;16.80;8.00;;;;;;;-4.68;55.74;98073.03;5002434;28;20548;-84
2024/01/09 06:31:07;;;;;;;13.63;6.53;;;;;;;-4.89;56.56;98078.94;4995109;28;20041;-86
2024/01/09 06:33:33;;;;;;;12.68;5.78;;;;;;;-4.67;56.41;98079.72;5000423;28;20021;-84
2024/01/09 06:35:58;;;;;;;13.57;6.07;;;;;;;-4.86;56.18;98072.81;5004852;28;20057;-86
2024/01/09 06:38:23;;;;;;;13.60;5.70;;;;;;;-5.02;56.25;98070.72;5019003;28;20568;-85
2024/01/09 06:40:49;;;;;;;12.25;5.35;;;;;;;-5.12;56.90;98063.00;5020905;28;20490;-87
2024/01/09 06:43:14;;;;;;;14.13;7.70;;;;;;;-5.05;57.11;98078.56;5020506;28;20438;-86
2024/01/09 06:45:39;;;;;;;29.15;11.93;;;;;;;-5.08;56.59;98078.81;5020434;28;20058;-83
2024/01/09 06:48:05;;;;;;;15.60;6.68;;;;;;;-4.81;56.25;98075.78;5009813;28;20042;-85
2024/01/09 06:50:31;;;;;;;19.23;8.93;;;;;;;-4.75;55.93;98074.47;5003418;28;20089;-86
2024/01/09 06:52:56;;;;;;;13.73;7.10;;;;;;;-4.58;55.75;98076.44;5040328;28;20021;-87
2024/01/09 06:55:21;;;;;;;13.05;6.20;;;;;;;-4.92;56.58;98075.84;5011742;28;20029;-86
2024/01/09 06:57:47;;;;;;;14.35;6.10;;;;;;;-4.67;56.13;98092.44;5007913;28;20033;-79
2024/01/09 07:00:13;;;;;;;14.85;6.75;;;;;;;-4.84;56.62;98085.38;5023396;28;20418;-80
2024/01/09 07:02:39;;;;;;;17.33;9.20;;;;;;;-4.79;55.79;98086.63;4994180;28;20029;-79
2024/01/09 07:05:04;;;;;;;14.48;7.43;;;;;;;-4.80;56.10;98097.69;5022120;28;20528;-80
2024/01/09 07:07:30;;;;;;;11.77;5.75;;;;;;;-5.05;56.83;98081.09;5009203;28;20040;-80
2024/01/09 07:09:56;;;;;;;14.27;5.97;;;;;;;-4.90;56.71;98091.75;5012922;28;20358;-79
2024/01/09 07:12:21;;;;;;;15.90;5.97;;;;;;;-5.05;56.78;98090.44;5008821;28;20034;-80
2024/01/09 07:14:47;;;;;;;12.43;5.57;;;;;;;-4.84;56.06;98095.53;5036325;28;20396;-80
2024/01/09 07:17:13;;;;;;;14.20;6.13;;;;;;;-4.73;56.48;98091.22;5024972;28;20029;-81
2024/01/09 07:19:38;;;;;;;13.27;6.25;;;;;;;-4.97;57.09;98075.41;5043392;28;20037;-81
2024/01/09 07:22:04;;;;;;;13.85;6.65;;;;;;;-4.70;56.13;98083.31;5010022;28;20036;-79
2024/01/09 07:24:29;;;;;;;14.55;5.95;;;;;;;-4.89;56.74;98093.38;5009032;28;20057;-79
2024/01/09 07:26:54;;;;;;;14.57;6.55;;;;;;;-4.73;56.29;98093.75;4990769;28;20744;-80
2024/01/09 07:29:20;;;;;;;15.63;6.55;;;;;;;-4.90;56.27;98094.28;5019288;28;20078;-79
2024/01/09 07:31:46;;;;;;;13.27;6.38;;;;;;;-4.72;56.22;98095.34;4991988;28;20053;-81
2024/01/09 07:34:11;;;;;;;15.38;6.47;;;;;;;-4.51;55.81;98102.16;4990588;28;20041;-80
2024/01/09 07:36:37;;;;;;;15.15;6.50;;;;;;;-4.67;56.21;98089.09;5004572;28;20065;-80
2024/01/09 07:39:02;;;;;;;15.65;6.57;;;;;;;-4.68;56.07;98098.44;5007157;28;20049;-79
2024/01/09 07:41:28;;;;;;;22.50;8.15;;;;;;;-4.75;56.18;98093.03;5005875;28;20069;-80
2024/01/09 07:43:53;;;;;;;14.60;6.93;;;;;;;-4.96;56.37;98093.06;5021393;28;20025;-80
2024/01/09 07:46:19;;;;;;;13.07;5.43;;;;;;;-4.83;56.03;98092.88;5007214;28;20041;-80
2024/01/09 07:48:46;;;;;;;13.43;6.10;;;;;;;-4.84;56.07;98088.72;5021147;28;20037;-80
2024/01/09 07:51:12;;;;;;;13.40;6.55;;;;;;;-4.81;56.12;98098.66;5003613;28;20026;-79
2024/01/09 07:53:39;;;;;;;14.02;6.13;;;;;;;-4.76;56.23;98099.06;5019028;28;20030;-81
2024/01/09 07:56:14;;;;;;;12.23;5.53;;;;;;;-4.68;56.54;98105.28;4990725;28;20124;-78
2024/01/09 07:58:39;;;;;;;13.68;6.32;;;;;;;-4.74;56.37;98099.75;5008636;28;20124;-80
2024/01/09 08:01:04;;;;;;;12.68;5.90;;;;;;;-4.86;56.56;98098.22;5019203;28;20116;-79
2024/01/09 08:03:30;;;;;;;14.23;6.72;;;;;;;-4.86;56.63;98098.22;5004917;28;20053;-80
2024/01/09 08:05:55;;;;;;;11.60;5.63;;;;;;;-4.95;56.39;98093.84;5006180;28;20119;-84
2024/01/09 08:08:21;;;;;;;13.25;5.68;;;;;;;-4.85;56.39;98107.41;5014793;28;20049;-88
2024/01/09 08:10:46;;;;;;;12.45;6.10;;;;;;;-4.73;56.11;98093.75;5022431;28;20101;-81
2024/01/09 08:13:12;;;;;;;11.38;5.47;;;;;;;-4.62;55.95;98102.25;5005723;28;20545;-86
2024/01/09 08:15:37;;;;;;;13.82;5.53;;;;;;;-4.86;55.85;98105.81;5006616;28;20029;-88
2024/01/09 08:18:02;;;;;;;12.48;6.07;;;;;;;-4.67;55.58;98099.28;5004159;28;20049;-86
2024/01/09 08:20:28;;;;;;;13.48;5.95;;;;;;;-4.85;55.77;98099.81;5030237;28;20042;-85
2024/01/09 08:22:54;;;;;;;14.45;5.68;;;;;;;-4.76;56.12;98106.69;5007886;28;20034;-88
2024/01/09 08:25:19;;;;;;;15.27;6.05;;;;;;;-4.50;55.30;98108.84;5006757;28;20037;-86
2024/01/09 08:27:45;;;;;;;11.40;4.85;;;;;;;-4.70;55.64;98113.00;5006869;28;20042;-83
2024/01/09 08:30:11;;;;;;;13.68;6.10;;;;;;;-4.64;55.64;98102.38;5015306;28;20037;-86
2024/01/09 08:32:37;;;;;;;14.38;4.93;;;;;;;-4.61;56.23;98109.75;5016450;28;20394;-86
2024/01/09 08:35:03;;;;;;;14.68;5.72;;;;;;;-4.60;55.24;98108.78;4987113;28;20044;-86
2024/01/09 08:37:29;;;;;;;12.65;5.07;;;;;;;-4.61;55.04;98101.28;5003505;28;20053;-84
2024/01/09 08:39:54;;;;;;;12.38;5.22;;;;;;;-4.75;55.25;98105.75;5003127;28;20050;-86
2024/01/09 08:42:19;;;;;;;12.48;5.13;;;;;;;-4.51;55.09;98102.16;5002754;28;20457;-86
2024/01/09 08:44:45;;;;;;;10.52;4.90;;;;;;;-4.58;54.79;98109.47;4988323;28;20029;-88
2024/01/09 08:47:10;;;;;;;11.85;5.13;;;;;;;-4.54;54.86;98121.00;5002696;28;20032;-87
2024/01/09 08:49:36;;;;;;;13.52;5.95;;;;;;;-4.42;54.61;98114.13;4999462;28;20466;-85
2024/01/09 08:52:01;;;;;;;13.52;5.72;;;;;;;-4.60;54.52;98106.25;5019158;28;20254;-84
2024/01/09 08:54:26;;;;;;;17.23;6.63;;;;;;;-4.33;53.92;98115.91;4985934;28;20089;-84
2024/01/09 08:56:52;;;;;;;13.57;6.15;;;;;;;-4.58;54.87;98113.75;5002806;28;20029;-86
2024/01/09 08:59:17;;;;;;;13.10;5.18;;;;;;;-4.45;54.63;98111.81;5011722;28;20045;-85
2024/01/09 09:01:43;;;;;;;11.98;5.15;;;;;;;-4.27;54.04;98113.78;5031913;28;20037;-79
2024/01/09 09:04:08;;;;;;;16.10;7.13;;;;;;;-4.34;53.55;98100.78;4996813;28;20038;-80
2024/01/09 09:06:34;;;;;;;12.48;6.03;;;;;;;-4.05;53.33;98116.16;5016898;28;20032;-88
2024/01/09 09:08:59;;;;;;;12.07;5.22;;;;;;;-3.84;53.23;98108.47;5007441;28;20037;-85
2024/01/09 09:11:25;;;;;;;12.15;4.60;;;;;;;-3.84;52.70;98107.66;5003629;28;20521;-84
2024/01/09 09:13:50;;;;;;;10.38;5.03;;;;;;;-4.03;52.68;98110.94;4991212;28;20029;-86
2024/01/09 09:16:15;;;;;;;14.52;6.00;;;;;;;-4.10;52.84;98103.00;5006643;28;20032;-80
2024/01/09 09:18:41;;;;;;;12.10;4.90;;;;;;;-3.83;52.48;98101.63;5019687;28;20029;-79
2024/01/09 09:21:07;;;;;;;13.23;4.78;;;;;;;-3.76;52.29;98107.81;4990920;28;20120;-80
2024/01/09 09:23:33;;;;;;;11.63;4.65;;;;;;;-3.59;52.52;98114.81;5006372;28;20049;-79
2024/01/09 09:25:58;;;;;;;13.15;5.38;;;;;;;-3.90;52.10;98110.72;5018522;28;20037;-79
2024/01/09 09:28:24;;;;;;;11.90;4.78;;;;;;;-3.59;51.76;98114.00;4997582;28;20029;-79
2024/01/09 09:30:49;;;;;;;13.48;5.47;;;;;;;-3.52;51.84;98116.84;5018567;28;20045;-79
2024/01/09 09:33:15;;;;;;;11.85;5.70;;;;;;;-3.40;51.58;98113.22;5017184;28;20022;-78
2024/01/09 09:35:40;;;;;;;13.00;4.88;;;;;;;-3.61;51.34;98110.78;5005528;28;20048;-80
2024/01/09 09:38:05;;;;;;;12.20;5.72;;;;;;;-3.58;51.28;98110.53;5005479;28;20478;-80
2024/01/09 09:40:31;;;;;;;13.63;5.32;;;;;;;-3.36;51.56;98122.19;5020427;28;20075;-79
2024/01/09 09:43:00;;;;;;;11.18;5.40;;;;;;;-3.44;51.22;98124.63;5038693;28;20470;-79
2024/01/09 09:45:27;;;;;;;11.18;4.90;;;;;;;-3.24;51.01;98113.53;5019069;28;20030;-79
2024/01/09 09:47:55;;;;;;;14.13;5.25;;;;;;;-2.91;51.34;98123.44;4999889;28;20029;-79
2024/01/09 09:50:21;;;;;;;10.75;5.90;;;;;;;-2.96;50.10;98107.78;5020875;28;20726;-78
2024/01/09 09:52:47;;;;;;;13.85;5.93;;;;;;;-3.30;50.52;98111.50;5012610;28;20140;-80
2024/01/09 09:55:13;;;;;;;14.07;5.55;;;;;;;-3.37;50.51;98110.44;4989131;28;20311;-79
2024/01/09 09:57:38;;;;;;;12.07;5.00;;;;;;;-3.14;50.29;98115.25;5019037;28;20030;-79
2024/01/09 10:00:08;;;;;;;11.00;5.53;;;;;;;-2.90;50.60;98105.44;5018486;28;20445;-79
2024/01/09 10:02:34;;;;;;;9.77;4.88;;;;;;;-3.02;49.79;98106.53;5019928;28;20040;-79
2024/01/09 10:05:11;;;;;;;11.85;5.50;;;;;;;-3.04;50.54;98100.78;5003103;28;20045;-79
2024/01/09 10:07:39;;;;;;;11.63;4.93;;;;;;;-2.86;50.43;98101.72;5005911;28;20037;-79
2024/01/09 10:10:07;;;;;;;11.48;5.10;;;;;;;-2.79;49.46;98096.88;5002382;28;20493;-80
2024/01/09 10:12:33;;;;;;;12.25;5.95;;;;;;;-2.78;49.03;98092.56;5021757;28;20025;-80
2024/01/09 10:15:07;;;;;;;8.75;4.22;;;;;;;-2.55;49.23;98091.34;5007163;28;20022;-79
2024/01/09 10:17:34;;;;;;;12.55;5.95;;;;;;;-2.54;48.90;98085.28;5015707;28;21340;-86
2024/01/09 10:20:00;;;;;;;13.35;6.13;;;;;;;-2.22;48.24;98094.31;5013454;28;20041;-84
2024/01/09 10:22:29;;;;;;;10.27;4.97;;;;;;;-2.54;47.90;98092.91;5010112;28;20402;-88
2024/01/09 10:24:56;;;;;;;14.65;5.65;;;;;;;-2.48;47.64;98087.28;4984583;28;20072;-86
2024/01/09 10:27:21;;;;;;;12.00;4.85;;;;;;;-2.38;48.12;98079.59;5021985;28;20045;-87
2024/01/09 10:29:47;;;;;;;11.40;5.22;;;;;;;-2.08;47.80;98087.94;5021067;28;20084;-86
2024/01/09 10:32:17;;;;;;;12.52;5.35;;;;;;;-2.06;47.25;98086.03;5003611;28;20029;-86
2024/01/09 10:34:43;;;;;;;12.07;5.18;;;;;;;-2.03;46.83;98077.31;4996912;28;20056;-86
2024/01/09 10:37:09;;;;;;;12.00;5.70;;;;;;;-2.13;46.59;98087.56;5004528;28;20025;-83
2024/01/09 10:39:35;;;;;;;11.80;4.72;;;;;;;-2.02;46.59;98084.00;4990144;28;20029;-85
2024/01/09 10:42:09;;;;;;;12.45;4.60;;;;;;;-1.97;46.58;98089.50;5017731;28;20030;-85
2024/01/09 10:44:35;;;;;;;13.43;6.40;;;;;;;-1.73;46.01;98079.56;5006914;28;20125;-86
2024/01/09 10:47:00;;;;;;;13.40;6.22;;;;;;;-1.65;45.65;98083.16;5005782;28;20132;-84
2024/01/09 10:49:26;;;;;;;10.75;5.53;;;;;;;-1.74;45.54;98079.72;5005936;28;20022;-85
2024/01/09 10:51:52;;;;;;;12.52;5.25;;;;;;;-1.56;45.17;98070.34;5003906;28;20040;-85
2024/01/09 10:54:19;;;;;;;9.80;5.45;;;;;;;-1.41;45.61;98068.06;5021900;28;20132;-85
2024/01/09 10:56:47;;;;;;;11.43;5.28;;;;;;;-1.24;45.13;98081.00;5015882;28;20071;-83
2024/01/09 10:59:13;;;;;;;8.80;4.65;;;;;;;-1.16;44.46;98071.63;5022171;28;20025;-83
2024/01/09 11:01:39;;;;;;;13.45;5.20;;;;;;;-1.21;45.12;98061.06;5005110;28;20061;-84
2024/01/09 11:04:04;;;;;;;12.32;6.07;;;;;;;-1.10;44.25;98065.13;5017770;28;20121;-82
2024/01/09 11:06:32;;;;;;;13.13;5.70;;;;;;;-0.88;43.38;98065.63;5022599;28;20442;-82
2024/01/09 11:09:00;;;;;;;10.95;6.03;;;;;;;-0.88;43.07;98068.19;5005160;28;20376;-83
2024/01/09 11:11:26;;;;;;;12.98;5.50;;;;;;;-1.18;43.02;98057.41;5004676;28;20083;-81
2024/01/09 11:13:53;;;;;;;13.85;6.50;;;;;;;-1.04;43.79;98049.22;5004955;28;20121;-82
2024/01/09 11:16:20;;;;;;;14.85;6.30;;;;;;;-1.02;43.50;98057.53;5018428;28;20034;-83